createdAt,value
2023-01-13T00:00:09.107Z,85.9
2023-01-13T00:01:25.400Z,86
2023-01-13T00:02:41.681Z,86
2023-01-13T00:03:57.979Z,85.8
2023-01-13T00:05:14.269Z,86
2023-01-13T00:06:30.579Z,85.7
2023-01-13T00:07:46.868Z,85.7
2023-01-13T00:09:03.168Z,85.7
2023-01-13T00:10:19.444Z,85.5
2023-01-13T00:11:34.769Z,85.7
2023-01-13T00:12:51.065Z,85.6
2023-01-13T00:14:07.352Z,85.7
2023-01-13T00:15:23.649Z,85.6
2023-01-13T00:17:56.244Z,85.7
2023-01-13T00:20:28.828Z,85.7
2023-01-13T00:21:45.109Z,85.7
2023-01-13T00:23:01.407Z,85.5
2023-01-13T00:24:17.703Z,85.6
2023-01-13T00:25:33.994Z,85.8
2023-01-13T00:26:50.289Z,85.6
2023-01-13T00:28:05.596Z,85.6
2023-01-13T00:29:21.894Z,85.5
2023-01-13T00:30:38.201Z,85.7
2023-01-13T00:31:54.487Z,85.6
2023-01-13T00:33:10.769Z,85.6
2023-01-13T00:35:43.364Z,85.7
2023-01-13T00:36:58.681Z,85.6
2023-01-13T00:38:13.995Z,85.9
2023-01-13T00:39:30.284Z,85.7
2023-01-13T00:40:46.585Z,85.4
2023-01-13T00:42:02.877Z,85.5
2023-01-13T00:43:19.167Z,85.6
2023-01-13T00:44:35.463Z,85.6
2023-01-13T00:45:51.752Z,85.3
2023-01-13T00:47:08.046Z,85.3
2023-01-13T00:48:24.344Z,85.3
2023-01-13T00:49:40.646Z,85.3
2023-01-13T00:50:55.964Z,85.1
2023-01-13T00:52:11.262Z,85.2
2023-01-13T00:53:27.562Z,85.2
2023-01-13T00:54:43.847Z,85.1
2023-01-13T00:56:00.148Z,85.2
2023-01-13T00:57:16.431Z,85.3
2023-01-13T00:58:32.736Z,85.1
2023-01-13T00:59:49.037Z,85.2
2023-01-13T01:01:05.331Z,85.1
2023-01-13T01:02:21.611Z,85.2
2023-01-13T01:03:37.910Z,85.2
2023-01-13T01:04:54.206Z,85
2023-01-13T01:06:10.503Z,84.8
2023-01-13T01:07:26.789Z,84.6
2023-01-13T01:08:42.099Z,84.7
2023-01-13T01:09:58.392Z,85
2023-01-13T01:11:14.684Z,84.6
2023-01-13T01:12:30.988Z,84.5
2023-01-13T01:13:47.275Z,84.5
2023-01-13T01:15:03.575Z,84.5
2023-01-13T01:16:19.867Z,84.5
2023-01-13T01:17:36.157Z,84.6
2023-01-13T01:18:52.446Z,84.4
2023-01-13T01:20:08.740Z,84.5
2023-01-13T01:21:25.045Z,84.4
2023-01-13T01:22:41.341Z,84.4
2023-01-13T01:23:57.622Z,84.3
2023-01-13T01:25:12.942Z,84.5
2023-01-13T01:26:29.231Z,84.5
2023-01-13T01:27:45.518Z,84.4
2023-01-13T01:29:01.814Z,84.4
2023-01-13T01:30:18.125Z,84.4
2023-01-13T01:31:34.399Z,84.5
2023-01-13T01:32:50.711Z,84.5
2023-01-13T01:34:06.986Z,84.5
2023-01-13T01:35:23.297Z,84.3
2023-01-13T01:36:39.594Z,84.6
2023-01-13T01:37:55.887Z,84.7
2023-01-13T01:39:12.175Z,84.3
2023-01-13T01:40:28.458Z,84.3
2023-01-13T01:41:43.772Z,84.4
2023-01-13T01:43:00.062Z,84.5
2023-01-13T01:44:16.354Z,84.3
2023-01-13T01:45:32.660Z,84
2023-01-13T01:46:48.953Z,84.2
2023-01-13T01:48:05.247Z,84.1
2023-01-13T01:49:21.530Z,84.1
2023-01-13T01:50:37.831Z,84.1
2023-01-13T01:51:54.126Z,83.9
2023-01-13T01:53:10.415Z,83.9
2023-01-13T01:54:26.720Z,83.5
2023-01-13T01:55:43.008Z,83.7
2023-01-13T01:56:59.301Z,83.6
2023-01-13T01:58:14.613Z,83.8
2023-01-13T01:59:30.908Z,83.4
2023-01-13T02:00:47.209Z,83.7
2023-01-13T02:02:03.495Z,83.6
2023-01-13T02:03:19.794Z,83.5
2023-01-13T02:05:52.380Z,83.3
2023-01-13T02:07:08.678Z,83.2
2023-01-13T02:08:24.969Z,83.1
2023-01-13T02:09:41.269Z,83.3
2023-01-13T02:10:57.556Z,83.4
2023-01-13T02:12:13.855Z,83.2
2023-01-13T02:13:30.139Z,83.2
2023-01-13T02:14:45.449Z,83
2023-01-13T02:16:01.751Z,82.9
2023-01-13T02:17:18.045Z,83.1
2023-01-13T02:18:34.341Z,83
2023-01-13T02:19:50.627Z,83.1
2023-01-13T02:21:06.918Z,83.1
2023-01-13T02:22:23.212Z,83
2023-01-13T02:23:39.499Z,83.1
2023-01-13T02:24:55.795Z,83
2023-01-13T02:26:12.100Z,83.1
2023-01-13T02:27:28.391Z,83
2023-01-13T02:28:44.679Z,83.3
2023-01-13T02:30:00.970Z,83.2
2023-01-13T02:31:16.288Z,83
2023-01-13T02:32:32.594Z,83.2
2023-01-13T02:33:48.892Z,83.3
2023-01-13T02:35:05.173Z,83.2
2023-01-13T02:36:21.469Z,83
2023-01-13T02:37:37.755Z,83.1
2023-01-13T02:38:54.056Z,83
2023-01-13T02:40:10.361Z,83.1
2023-01-13T02:41:26.651Z,83
2023-01-13T02:42:42.937Z,83.1
2023-01-13T02:43:59.242Z,83.1
2023-01-13T02:45:15.538Z,83.1
2023-01-13T02:46:31.824Z,83.1
2023-01-13T02:47:47.138Z,82.9
2023-01-13T02:49:03.436Z,83.1
2023-01-13T02:50:19.710Z,83.4
2023-01-13T02:51:36.011Z,83.2
2023-01-13T02:52:52.314Z,83.3
2023-01-13T02:54:08.604Z,83.1
2023-01-13T02:55:24.893Z,83.1
2023-01-13T02:56:41.199Z,83
2023-01-13T02:57:57.492Z,83
2023-01-13T02:59:13.782Z,83.1
2023-01-13T03:00:30.065Z,83.2
2023-01-13T03:01:46.369Z,83.2
2023-01-13T03:03:02.657Z,83.2
2023-01-13T03:04:17.977Z,83.2
2023-01-13T03:05:34.266Z,83.3
2023-01-13T03:06:50.566Z,83.2
2023-01-13T03:08:06.847Z,83.2
2023-01-13T03:09:23.142Z,83.1
2023-01-13T03:10:39.438Z,83.1
2023-01-13T03:11:55.741Z,83.5
2023-01-13T03:13:12.017Z,83.3
2023-01-13T03:14:28.311Z,83.3
2023-01-13T03:15:44.620Z,83.3
2023-01-13T03:17:00.904Z,83.1
2023-01-13T03:18:17.200Z,83.4
2023-01-13T03:19:33.499Z,83
2023-01-13T03:20:48.803Z,83.3
2023-01-13T03:22:05.095Z,83.2
2023-01-13T03:23:21.405Z,83.3
2023-01-13T03:24:37.685Z,83
2023-01-13T03:25:53.981Z,83
2023-01-13T03:27:10.279Z,83.2
2023-01-13T03:28:26.561Z,83.3
2023-01-13T03:29:42.875Z,83.4
2023-01-13T03:30:59.152Z,83.3
2023-01-13T03:32:15.452Z,83.2
2023-01-13T03:33:31.737Z,83.1
2023-01-13T03:34:48.051Z,83.2
2023-01-13T03:36:04.333Z,83.2
2023-01-13T03:37:19.635Z,83.2
2023-01-13T03:38:35.939Z,83.2
2023-01-13T03:39:52.237Z,83.2
2023-01-13T03:41:08.516Z,83.3
2023-01-13T03:42:24.821Z,83.4
2023-01-13T03:43:41.117Z,83.6
2023-01-13T03:44:57.405Z,83.5
2023-01-13T03:46:13.694Z,83.6
2023-01-13T03:47:30.005Z,83.7
2023-01-13T03:48:46.291Z,83.7
2023-01-13T03:50:02.583Z,83.7
2023-01-13T03:51:18.881Z,84
2023-01-13T03:52:35.163Z,83.9
2023-01-13T03:53:50.482Z,84.1
2023-01-13T03:55:06.778Z,84.2
2023-01-13T03:56:23.068Z,84.3
2023-01-13T03:57:39.373Z,84.3
2023-01-13T03:58:55.660Z,84.6
2023-01-13T04:00:11.950Z,84.5
2023-01-13T04:01:28.246Z,84.6
2023-01-13T04:02:44.535Z,84.5
2023-01-13T04:04:00.832Z,84.7
2023-01-13T04:05:17.118Z,84.8
2023-01-13T04:06:33.430Z,84.9
2023-01-13T04:09:06.010Z,84.9
2023-01-13T04:10:21.312Z,85
2023-01-13T04:11:37.606Z,84.9
2023-01-13T04:12:53.912Z,85.2
2023-01-13T04:14:10.202Z,84.9
2023-01-13T04:15:26.502Z,84.9
2023-01-13T04:16:42.797Z,85
2023-01-13T04:17:59.093Z,84.9
2023-01-13T04:19:15.371Z,85
2023-01-13T04:20:31.668Z,84.9
2023-01-13T04:21:47.965Z,84.9
2023-01-13T04:23:04.259Z,84.9
2023-01-13T04:24:20.563Z,85.2
2023-01-13T04:26:53.141Z,84.8
2023-01-13T04:28:08.461Z,85.2
2023-01-13T04:29:24.745Z,85.2
2023-01-13T04:30:41.040Z,85
2023-01-13T04:31:57.330Z,85.2
2023-01-13T04:33:13.635Z,85.2
2023-01-13T04:34:29.918Z,85.2
2023-01-13T04:35:46.222Z,85.5
2023-01-13T04:37:02.509Z,85.5
2023-01-13T04:38:18.805Z,85.3
2023-01-13T04:39:35.091Z,85.5
2023-01-13T04:42:07.687Z,85.8
2023-01-13T04:43:23.972Z,85.8
2023-01-13T04:44:39.292Z,85.8
2023-01-13T04:45:55.580Z,85.8
2023-01-13T04:47:11.885Z,85.9
2023-01-13T04:48:28.176Z,85.9
2023-01-13T04:49:44.466Z,86.1
2023-01-13T04:51:00.758Z,86
2023-01-13T04:52:17.046Z,85.8
2023-01-13T04:53:33.353Z,85.8
2023-01-13T04:54:49.638Z,86
2023-01-13T04:56:05.929Z,85.9
2023-01-13T04:57:22.223Z,85.9
2023-01-13T04:58:38.522Z,85.9
2023-01-13T04:59:54.820Z,85.7
2023-01-13T05:01:10.119Z,85.8
2023-01-13T05:02:26.410Z,85.9
2023-01-13T05:03:42.711Z,86
2023-01-13T05:04:59.012Z,86
2023-01-13T05:06:15.252Z,86
2023-01-13T05:07:31.499Z,85.9
2023-01-13T05:08:47.000Z,86.1
2023-01-13T05:10:03.971Z,86.1
2023-01-13T05:11:20.222Z,86.2
2023-01-13T05:12:36.461Z,86.2
2023-01-13T05:13:52.688Z,86.1
2023-01-13T05:15:08.943Z,86.1
2023-01-13T05:16:25.170Z,86.2
2023-01-13T05:17:40.438Z,86.2
2023-01-13T05:18:56.683Z,86.3
2023-01-13T05:20:12.908Z,86.2
2023-01-13T05:21:29.163Z,86.2
2023-01-13T05:22:45.383Z,86.1
2023-01-13T05:24:01.632Z,86.1
2023-01-13T05:25:17.864Z,86
2023-01-13T05:26:34.115Z,86
2023-01-13T05:27:50.409Z,86
2023-01-13T05:29:06.707Z,85.8
2023-01-13T05:30:22.994Z,85.9
2023-01-13T05:31:39.280Z,85.8
2023-01-13T05:32:55.580Z,85.7
2023-01-13T05:34:10.896Z,85.8
2023-01-13T05:35:27.184Z,85.9
2023-01-13T05:36:43.479Z,85.5
2023-01-13T05:37:59.769Z,85.5
2023-01-13T05:39:16.076Z,85.5
2023-01-13T05:40:32.356Z,85.3
2023-01-13T05:41:48.667Z,85.5
2023-01-13T05:43:04.952Z,85.3
2023-01-13T05:44:21.238Z,85.3
2023-01-13T05:45:37.531Z,85.3
2023-01-13T05:46:53.837Z,85.3
2023-01-13T05:48:10.135Z,85
2023-01-13T05:49:26.413Z,85.2
2023-01-13T05:50:41.738Z,85.2
2023-01-13T05:51:58.023Z,85
2023-01-13T05:53:14.320Z,85
2023-01-13T05:54:30.610Z,85
2023-01-13T05:55:46.908Z,85
2023-01-13T05:57:03.197Z,85
2023-01-13T05:58:19.484Z,85
2023-01-13T05:59:35.796Z,85
2023-01-13T06:00:52.079Z,85.2
2023-01-13T06:02:08.372Z,85
2023-01-13T06:03:24.662Z,84.8
2023-01-13T06:04:40.959Z,84.9
2023-01-13T06:05:57.266Z,85
2023-01-13T06:07:12.564Z,84.8
2023-01-13T06:08:28.853Z,85.2
2023-01-13T06:09:45.166Z,85
2023-01-13T06:11:01.455Z,85.2
2023-01-13T06:12:17.745Z,85.2
2023-01-13T06:13:34.045Z,85.2
2023-01-13T06:14:50.322Z,84.9
2023-01-13T06:16:06.620Z,85
2023-01-13T06:17:22.914Z,84.9
2023-01-13T06:18:39.214Z,84.9
2023-01-13T06:19:55.500Z,85
2023-01-13T06:21:11.808Z,85
2023-01-13T06:22:28.097Z,85
2023-01-13T06:23:43.399Z,85.2
2023-01-13T06:24:59.705Z,85.3
2023-01-13T06:26:15.996Z,85.3
2023-01-13T06:27:32.282Z,85.5
2023-01-13T06:28:48.575Z,86.1
2023-01-13T06:30:04.871Z,86.2
2023-01-13T06:31:21.174Z,86.3
2023-01-13T06:33:53.762Z,86.4
2023-01-13T06:35:10.047Z,86.5
2023-01-13T06:36:26.347Z,86.8
2023-01-13T06:37:42.638Z,86.7
2023-01-13T06:38:58.871Z,86.9
2023-01-13T06:40:14.148Z,87
2023-01-13T06:41:30.388Z,86.8
2023-01-13T06:42:46.633Z,87
2023-01-13T06:44:02.863Z,86.7
2023-01-13T06:45:19.114Z,86.7
2023-01-13T06:46:34.375Z,86.6
2023-01-13T06:47:50.612Z,86.7
2023-01-13T06:49:06.846Z,86.7
2023-01-13T06:50:23.097Z,86.4
2023-01-13T06:51:39.318Z,86.5
2023-01-13T06:52:55.573Z,86.7
2023-01-13T06:54:11.806Z,86.6
2023-01-13T06:55:28.037Z,86.5
2023-01-13T06:56:44.276Z,86.4
2023-01-13T06:58:00.528Z,86.4
2023-01-13T06:59:16.774Z,86.4
2023-01-13T07:00:33.013Z,86.3
2023-01-13T07:01:49.248Z,86.2
2023-01-13T07:03:04.495Z,86.3
2023-01-13T07:04:20.741Z,86.3
2023-01-13T07:05:36.987Z,86.2
2023-01-13T07:06:53.222Z,86.2
2023-01-13T07:08:09.455Z,86.3
2023-01-13T07:09:25.695Z,86.3
2023-01-13T07:10:41.950Z,86.1
2023-01-13T07:11:58.192Z,86.1
2023-01-13T07:13:14.412Z,86.2
2023-01-13T07:14:30.672Z,86
2023-01-13T07:15:46.897Z,86
2023-01-13T07:17:03.131Z,85
2023-01-13T07:18:19.374Z,85.3
2023-01-13T07:19:34.638Z,86
2023-01-13T07:20:50.880Z,88.4
2023-01-13T07:22:07.114Z,90.5
2023-01-13T07:23:23.364Z,92
2023-01-13T07:27:12.088Z,94.4
2023-01-13T07:28:28.308Z,94.8
2023-01-13T07:29:44.548Z,95.2
2023-01-13T07:31:00.805Z,95.3
2023-01-13T07:32:17.031Z,95.5
2023-01-13T07:33:33.280Z,95.6
2023-01-13T07:34:49.520Z,96
2023-01-13T07:36:05.761Z,96.1
2023-01-13T07:37:21.016Z,96.5
2023-01-13T07:38:37.250Z,96.8
2023-01-13T07:39:53.487Z,97
2023-01-13T07:41:09.739Z,97.2
2023-01-13T07:42:25.981Z,97.4
2023-01-13T07:43:42.207Z,97.7
2023-01-13T07:44:58.463Z,97.6
2023-01-13T07:46:14.689Z,98
2023-01-13T07:48:47.181Z,98
2023-01-13T07:50:03.417Z,98
2023-01-13T07:51:18.673Z,98.1
2023-01-13T07:52:33.943Z,98.2
2023-01-13T07:53:50.183Z,97.5
2023-01-13T07:55:06.410Z,97.9
2023-01-13T07:56:22.653Z,97.7
2023-01-13T07:57:38.904Z,97.1
2023-01-13T07:58:55.140Z,96.3
2023-01-13T08:00:11.367Z,96
2023-01-13T08:01:27.621Z,95.7
2023-01-13T08:02:43.849Z,95.6
2023-01-13T08:05:16.326Z,95
2023-01-13T08:06:32.582Z,94.8
2023-01-13T08:07:48.819Z,95
2023-01-13T08:09:04.079Z,94.7
2023-01-13T08:10:20.303Z,94
2023-01-13T08:11:36.542Z,93.8
2023-01-13T08:12:52.798Z,92.8
2023-01-13T08:14:09.029Z,92.2
2023-01-13T08:15:25.279Z,92
2023-01-13T08:16:41.508Z,92.8
2023-01-13T08:17:57.749Z,93
2023-01-13T08:19:13.025Z,92.8
2023-01-13T08:20:28.269Z,91.5
2023-01-13T08:21:44.523Z,90.9
2023-01-13T08:23:00.764Z,91.2
2023-01-13T08:24:16.990Z,91.2
2023-01-13T08:25:33.229Z,91.7
2023-01-13T08:26:49.466Z,91.3
2023-01-13T08:28:05.718Z,92.2
2023-01-13T08:29:21.954Z,92.2
2023-01-13T08:30:38.190Z,91.8
2023-01-13T08:31:54.434Z,92
2023-01-13T08:33:10.670Z,92
2023-01-13T08:34:26.914Z,91.8
2023-01-13T08:35:43.149Z,92.2
2023-01-13T08:36:58.405Z,92.1
2023-01-13T08:38:14.660Z,91.8
2023-01-13T08:39:30.905Z,92
2023-01-13T08:40:47.148Z,92.1
2023-01-13T08:42:03.378Z,92
2023-01-13T08:43:19.614Z,92.4
2023-01-13T08:44:35.850Z,92.1
2023-01-13T08:45:52.103Z,92.3
2023-01-13T08:47:08.342Z,92.2
2023-01-13T08:48:24.573Z,92.2
2023-01-13T08:49:40.825Z,92.1
2023-01-13T08:50:57.048Z,91.4
2023-01-13T08:52:13.302Z,92
2023-01-13T08:53:28.559Z,91.9
2023-01-13T08:54:44.789Z,91.4
2023-01-13T08:56:01.026Z,90.9
2023-01-13T08:57:17.275Z,91.3
2023-01-13T08:58:33.511Z,91.3
2023-01-13T08:59:49.753Z,91.1
2023-01-13T09:01:06.001Z,90.8
2023-01-13T09:02:22.243Z,90.7
2023-01-13T09:03:38.487Z,90.7
2023-01-13T09:04:54.720Z,89.5
2023-01-13T09:06:10.965Z,90
2023-01-13T09:07:27.204Z,90
2023-01-13T09:08:43.433Z,89.5
2023-01-13T09:09:58.702Z,89.3
2023-01-13T09:11:14.943Z,88.7
2023-01-13T09:12:31.173Z,89.3
2023-01-13T09:13:47.415Z,89.1
2023-01-13T09:15:03.659Z,89.4
2023-01-13T09:16:19.892Z,89.4
2023-01-13T09:17:36.148Z,89.4
2023-01-13T09:18:52.381Z,88.8
2023-01-13T09:20:08.627Z,89.2
2023-01-13T09:21:24.864Z,89.7
2023-01-13T09:22:41.093Z,89.6
2023-01-13T09:23:57.330Z,90.2
2023-01-13T09:25:13.574Z,90.2
2023-01-13T09:26:28.835Z,90.4
2023-01-13T09:27:45.076Z,90.3
2023-01-13T09:29:01.307Z,90.4
2023-01-13T09:30:17.563Z,90.3
2023-01-13T09:32:50.045Z,90.5
2023-01-13T09:34:06.285Z,90.8
2023-01-13T09:35:22.515Z,90.4
2023-01-13T09:36:38.761Z,90.8
2023-01-13T09:37:54.996Z,90.8
2023-01-13T09:39:11.239Z,90.9
2023-01-13T09:40:27.480Z,90.9
2023-01-13T09:41:43.715Z,91.1
2023-01-13T09:42:58.968Z,91.3
2023-01-13T09:44:15.208Z,91
2023-01-13T09:45:31.447Z,91.3
2023-01-13T09:46:47.699Z,90.6
2023-01-13T09:48:03.937Z,90.9
2023-01-13T09:49:20.178Z,91.1
2023-01-13T09:50:36.411Z,91
2023-01-13T09:51:52.645Z,90.5
2023-01-13T09:53:08.905Z,90.6
2023-01-13T09:54:25.131Z,90.5
2023-01-13T09:55:41.372Z,90.6
2023-01-13T09:56:57.619Z,90.3
2023-01-13T09:58:13.861Z,90.9
2023-01-13T09:59:29.117Z,91.3
2023-01-13T10:00:45.356Z,91.6
2023-01-13T10:02:01.596Z,91.4
2023-01-13T10:03:17.837Z,91.2
2023-01-13T10:04:34.068Z,91.3
2023-01-13T10:05:50.321Z,91.7
2023-01-13T10:07:06.551Z,91.8
2023-01-13T10:08:22.802Z,92
2023-01-13T10:09:39.041Z,91.9
2023-01-13T10:10:55.281Z,91.9
2023-01-13T10:12:11.521Z,91.5
2023-01-13T10:13:27.760Z,91.8
2023-01-13T10:14:44.005Z,91.8
2023-01-13T10:15:59.252Z,91.9
2023-01-13T10:17:15.501Z,91.5
2023-01-13T10:18:31.726Z,91.6
2023-01-13T10:19:47.979Z,91.5
2023-01-13T10:21:04.209Z,91.3
2023-01-13T10:22:20.460Z,91.4
2023-01-13T10:23:36.699Z,91.3
2023-01-13T10:24:52.943Z,91.2
2023-01-13T10:26:09.169Z,91.7
2023-01-13T10:27:25.425Z,91.5
2023-01-13T10:28:41.652Z,90.8
2023-01-13T10:29:57.898Z,91
2023-01-13T10:31:14.140Z,90.9
2023-01-13T10:32:29.384Z,91.1
2023-01-13T10:33:45.637Z,91
2023-01-13T10:35:01.868Z,91
2023-01-13T10:36:18.113Z,91.9
2023-01-13T10:37:34.347Z,91.6
2023-01-13T10:38:50.593Z,91.9
2023-01-13T10:40:06.827Z,91.2
2023-01-13T10:41:23.068Z,91.3
2023-01-13T10:42:39.313Z,91.5
2023-01-13T10:43:55.556Z,90.5
2023-01-13T10:45:11.790Z,90.6
2023-01-13T10:46:28.049Z,90
2023-01-13T10:47:44.271Z,90.2
2023-01-13T10:48:59.545Z,90.3
2023-01-13T10:50:15.774Z,88.1
2023-01-13T10:51:32.013Z,87.8
2023-01-13T10:52:48.246Z,88.7
2023-01-13T10:54:04.495Z,86.9
2023-01-13T10:55:20.741Z,86.8
2023-01-13T10:59:09.455Z,86.8
2023-01-13T11:00:25.702Z,86.8
2023-01-13T11:01:41.943Z,86.7
2023-01-13T11:04:13.442Z,87
2023-01-13T11:05:28.720Z,86.8
2023-01-13T11:06:43.965Z,86.3
2023-01-13T11:08:00.203Z,86.6
2023-01-13T11:10:32.695Z,87.1
2023-01-13T11:11:48.935Z,86.2
2023-01-13T11:13:05.164Z,87.4
2023-01-13T11:14:21.409Z,87.5
2023-01-13T11:15:37.662Z,87
2023-01-13T11:16:53.893Z,87
2023-01-13T11:18:10.129Z,86.2
2023-01-13T11:19:26.385Z,85.3
2023-01-13T11:20:42.616Z,85.3
2023-01-13T11:21:58.854Z,84.8
2023-01-13T11:23:14.109Z,84.8
2023-01-13T11:24:30.354Z,84.4
2023-01-13T11:25:46.593Z,85
2023-01-13T11:27:02.839Z,84.3
2023-01-13T11:28:19.066Z,84.1
2023-01-13T11:29:35.324Z,84.5
2023-01-13T11:30:51.561Z,84
2023-01-13T11:32:07.806Z,83.9
2023-01-13T11:33:23.049Z,84.5
2023-01-13T11:34:38.318Z,84.6
2023-01-13T11:35:54.544Z,84
2023-01-13T11:37:10.784Z,83.8
2023-01-13T11:38:27.041Z,83.3
2023-01-13T11:39:43.272Z,83.6
2023-01-13T11:40:59.521Z,82.6
2023-01-13T11:42:15.752Z,83.1
2023-01-13T11:43:31.990Z,83.4
2023-01-13T11:44:48.247Z,82.7
2023-01-13T11:46:04.489Z,81.2
2023-01-13T11:47:20.717Z,80.1
2023-01-13T11:48:36.967Z,81.3
2023-01-13T11:51:09.437Z,79.3
2023-01-13T11:52:24.689Z,79.5
2023-01-13T11:53:40.929Z,79.2
2023-01-13T11:54:57.179Z,79.2
2023-01-13T11:56:13.408Z,80
2023-01-13T11:57:29.668Z,78.7
2023-01-13T11:58:45.896Z,79.7
2023-01-13T12:00:02.146Z,79.7
2023-01-13T12:01:18.370Z,79
2023-01-13T12:02:34.615Z,79.5
2023-01-13T12:03:50.865Z,79.8
2023-01-13T12:05:07.093Z,80.7
2023-01-13T12:06:23.337Z,79.6
2023-01-13T12:08:55.823Z,78.9
2023-01-13T12:10:11.079Z,79.4
2023-01-13T12:11:27.327Z,77.7
2023-01-13T12:12:43.552Z,77.1
2023-01-13T12:15:16.043Z,78.2
2023-01-13T12:16:31.304Z,78.7
2023-01-13T12:17:46.555Z,77.5
2023-01-13T12:19:02.790Z,76.6
2023-01-13T12:20:19.043Z,77
2023-01-13T12:21:35.279Z,77.3
2023-01-13T12:24:07.748Z,79.1
2023-01-13T12:26:40.247Z,77.1
2023-01-13T12:27:56.487Z,76.8
2023-01-13T12:29:12.729Z,76.9
2023-01-13T12:30:28.952Z,76.9
2023-01-13T12:31:45.200Z,76.3
2023-01-13T12:33:00.466Z,76.1
2023-01-13T12:34:15.723Z,76.7
2023-01-13T12:35:31.954Z,76.1
2023-01-13T12:36:48.202Z,76.8
2023-01-13T12:38:04.443Z,75.7
2023-01-13T12:39:20.677Z,75.8
2023-01-13T12:40:36.913Z,75.8
2023-01-13T12:41:53.154Z,76.4
2023-01-13T12:43:09.394Z,76.1
2023-01-13T12:44:25.633Z,75.7
2023-01-13T12:45:41.882Z,76.3
2023-01-13T12:46:57.134Z,74.9
2023-01-13T12:48:12.387Z,75.3
2023-01-13T12:49:28.635Z,74.4
2023-01-13T12:50:44.874Z,74.6
2023-01-13T12:52:01.000Z,73.8
2023-01-13T12:53:17.361Z,73.8
2023-01-13T12:54:33.607Z,74
2023-01-13T12:55:49.829Z,74.3
2023-01-13T12:57:06.067Z,74.6
2023-01-13T12:58:22.316Z,74
2023-01-13T12:59:38.551Z,74
2023-01-13T13:00:53.816Z,72.2
2023-01-13T13:02:09.068Z,73.1
2023-01-13T13:03:25.307Z,73.3
2023-01-13T13:04:41.552Z,71.8
2023-01-13T13:05:57.798Z,72.8
2023-01-13T13:07:14.042Z,72.4
2023-01-13T13:08:30.276Z,72.3
2023-01-13T13:09:46.506Z,71.6
2023-01-13T13:11:02.747Z,72.5
2023-01-13T13:12:18.994Z,72
2023-01-13T13:13:35.239Z,72.7
2023-01-13T13:14:51.469Z,72.8
2023-01-13T13:16:07.710Z,72.4
2023-01-13T13:17:23.957Z,71.9
2023-01-13T13:18:39.216Z,72.5
2023-01-13T13:19:55.438Z,73
2023-01-13T13:21:11.694Z,73.3
2023-01-13T13:22:27.933Z,73.4
2023-01-13T13:23:44.174Z,73.1
2023-01-13T13:25:00.413Z,73.9
2023-01-13T13:26:16.643Z,74
2023-01-13T13:27:32.892Z,73.4
2023-01-13T13:28:49.120Z,73.2
2023-01-13T13:30:05.369Z,72.6
2023-01-13T13:31:21.610Z,73.4
2023-01-13T13:32:37.839Z,73
2023-01-13T13:33:54.090Z,72.2
2023-01-13T13:35:09.352Z,72.5
2023-01-13T13:36:25.574Z,70.8
2023-01-13T13:37:41.813Z,70.6
2023-01-13T13:38:58.069Z,70.7
2023-01-13T13:40:14.303Z,70.2
2023-01-13T13:41:30.541Z,69.9
2023-01-13T13:42:46.793Z,70.4
2023-01-13T13:44:03.022Z,69.6
2023-01-13T13:45:19.252Z,69.6
2023-01-13T13:46:35.468Z,70.3
2023-01-13T13:47:51.712Z,70.2
2023-01-13T13:49:07.960Z,71.1
2023-01-13T13:50:24.197Z,71.6
2023-01-13T13:51:39.445Z,71.8
2023-01-13T13:52:55.700Z,71.9
2023-01-13T13:54:11.927Z,72.5
2023-01-13T13:55:28.163Z,72.1
2023-01-13T13:56:44.401Z,72.5
2023-01-13T13:58:00.655Z,72.8
2023-01-13T13:59:16.000Z,73.2
2023-01-13T14:00:33.129Z,73
2023-01-13T14:01:49.374Z,72.8
2023-01-13T14:03:05.610Z,73.4
2023-01-13T14:04:21.855Z,73.9
2023-01-13T14:05:38.094Z,73.4
2023-01-13T14:06:54.329Z,73.2
2023-01-13T14:08:09.594Z,73.3
2023-01-13T14:09:25.831Z,72.8
2023-01-13T14:10:42.071Z,72.6
2023-01-13T14:11:58.308Z,72.1
2023-01-13T14:13:14.551Z,71
2023-01-13T14:14:30.797Z,71.1
2023-01-13T14:15:47.020Z,71.4
2023-01-13T14:17:03.268Z,71.1
2023-01-13T14:18:19.506Z,70
2023-01-13T14:19:35.742Z,69.4
2023-01-13T14:20:51.988Z,70.1
2023-01-13T14:22:08.231Z,69.4
2023-01-13T14:23:24.464Z,69.9
2023-01-13T14:24:39.729Z,70.3
2023-01-13T14:25:55.970Z,70.2
2023-01-13T14:27:12.199Z,70.4
2023-01-13T14:28:28.440Z,70.4
2023-01-13T14:29:44.693Z,70.9
2023-01-13T14:31:00.926Z,71
2023-01-13T14:32:17.156Z,70.5
2023-01-13T14:33:33.398Z,71.3
2023-01-13T14:34:49.653Z,70.8
2023-01-13T14:36:05.883Z,71.3
2023-01-13T14:37:22.118Z,70.9
2023-01-13T14:38:38.366Z,71.6
2023-01-13T14:39:54.616Z,71.2
2023-01-13T14:41:09.861Z,71.3
2023-01-13T14:42:26.104Z,71.6
2023-01-13T14:43:42.339Z,71.8
2023-01-13T14:44:58.575Z,71.9
2023-01-13T14:46:14.821Z,71.5
2023-01-13T14:47:31.065Z,71.9
2023-01-13T14:48:47.312Z,72.2
2023-01-13T14:50:03.549Z,72
2023-01-13T14:51:19.789Z,72.2
2023-01-13T14:52:36.029Z,72.3
2023-01-13T14:53:52.263Z,72.4
2023-01-13T14:55:08.499Z,73
2023-01-13T14:56:24.747Z,73.2
2023-01-13T14:57:40.013Z,73
2023-01-13T14:58:56.238Z,73
2023-01-13T15:00:12.490Z,73.3
2023-01-13T15:01:28.713Z,73.8
2023-01-13T15:02:44.971Z,73.5
2023-01-13T15:04:01.194Z,73.8
2023-01-13T15:05:17.445Z,73.7
2023-01-13T15:06:33.679Z,73.6
2023-01-13T15:07:49.930Z,73.9
2023-01-13T15:09:06.172Z,73.8
2023-01-13T15:10:22.396Z,74.3
2023-01-13T15:11:38.640Z,74
2023-01-13T15:12:54.892Z,73.8
2023-01-13T15:14:10.150Z,74.2
2023-01-13T15:15:26.372Z,74.2
2023-01-13T15:16:42.631Z,74.2
2023-01-13T15:17:58.864Z,74.2
2023-01-13T15:19:15.114Z,74.7
2023-01-13T15:20:30.362Z,74.7
2023-01-13T15:21:46.607Z,74.7
2023-01-13T15:23:02.842Z,74.8
2023-01-13T15:24:19.094Z,75.1
2023-01-13T15:25:35.334Z,75.3
2023-01-13T15:26:51.565Z,75.5
2023-01-13T15:28:07.807Z,75.7
2023-01-13T15:29:24.048Z,75.9
2023-01-13T15:30:40.286Z,76.1
2023-01-13T15:31:56.528Z,76.2
2023-01-13T15:33:12.763Z,76.4
2023-01-13T15:34:29.007Z,76.3
2023-01-13T15:35:45.241Z,76.7
2023-01-13T15:37:00.516Z,76.8
2023-01-13T15:38:16.743Z,76.7
2023-01-13T15:39:32.995Z,76.9
2023-01-13T15:40:49.238Z,76.9
2023-01-13T15:42:05.464Z,76.8
2023-01-13T15:43:21.706Z,76.7
2023-01-13T15:44:37.947Z,76.9
2023-01-13T15:45:54.189Z,76.9
2023-01-13T15:47:10.428Z,76.7
2023-01-13T15:48:26.681Z,76.8
2023-01-13T15:49:42.919Z,76.8
2023-01-13T15:50:59.161Z,76.8
2023-01-13T15:52:15.404Z,76.7
2023-01-13T15:53:30.644Z,76.7
2023-01-13T15:54:46.900Z,76.8
2023-01-13T15:56:03.121Z,76.8
2023-01-13T15:57:19.371Z,77.1
2023-01-13T15:58:35.611Z,77
2023-01-13T15:59:51.858Z,77.1
2023-01-13T16:01:08.083Z,77.1
2023-01-13T16:02:24.329Z,77.2
2023-01-13T16:03:40.578Z,77
2023-01-13T16:04:56.871Z,77.1
2023-01-13T16:06:13.163Z,77.1
2023-01-13T16:07:29.456Z,77.2
2023-01-13T16:08:45.747Z,77.4
2023-01-13T16:10:01.060Z,77.3
2023-01-13T16:11:17.370Z,77.4
2023-01-13T16:12:33.665Z,77.4
2023-01-13T16:13:49.953Z,77.3
2023-01-13T16:15:06.237Z,77.4
2023-01-13T16:16:22.548Z,77.3
2023-01-13T16:17:38.825Z,77.4
2023-01-13T16:18:55.133Z,77.4
2023-01-13T16:20:11.422Z,77.1
2023-01-13T16:21:27.711Z,77.3
2023-01-13T16:22:44.009Z,77.3
2023-01-13T16:24:00.310Z,77.3
2023-01-13T16:25:16.596Z,77.1
2023-01-13T16:26:31.915Z,77.1
2023-01-13T16:27:48.200Z,77.3
2023-01-13T16:29:04.493Z,77.2
2023-01-13T16:30:20.785Z,77.3
2023-01-13T16:31:37.097Z,77.3
2023-01-13T16:32:53.376Z,77.2
2023-01-13T16:35:25.972Z,76.5
2023-01-13T16:36:42.271Z,76.5
2023-01-13T16:37:58.560Z,76
2023-01-13T16:39:14.857Z,76.1
2023-01-13T16:40:31.153Z,75.9
2023-01-13T16:41:47.452Z,75.6
2023-01-13T16:43:02.759Z,75.2
2023-01-13T16:44:19.043Z,75.2
2023-01-13T16:45:35.335Z,75.3
2023-01-13T16:46:51.648Z,75
2023-01-13T16:48:07.927Z,74.9
2023-01-13T16:50:40.526Z,74.8
2023-01-13T16:51:56.822Z,74.7
2023-01-13T16:53:13.120Z,74.5
2023-01-13T16:54:29.400Z,74
2023-01-13T16:55:45.696Z,74.5
2023-01-13T16:57:01.994Z,74.7
2023-01-13T16:58:18.302Z,74.3
2023-01-13T16:59:33.600Z,74.3
2023-01-13T17:00:49.893Z,74.3
2023-01-13T17:02:06.188Z,74.1
2023-01-13T17:03:22.489Z,74
2023-01-13T17:04:38.788Z,74.2
2023-01-13T17:05:55.065Z,74.2
2023-01-13T17:07:11.337Z,74.4
2023-01-13T17:08:27.577Z,74.1
2023-01-13T17:09:43.867Z,73.5
2023-01-13T17:11:00.155Z,73.7
2023-01-13T17:12:16.456Z,73.6
2023-01-13T17:13:32.739Z,74.4
2023-01-13T17:14:49.034Z,74
2023-01-13T17:16:04.355Z,74
2023-01-13T17:17:20.640Z,73.8
2023-01-13T17:18:36.942Z,73.6
2023-01-13T17:19:53.229Z,74.3
2023-01-13T17:21:09.540Z,74.1
2023-01-13T17:22:25.834Z,73.9
2023-01-13T17:23:42.111Z,73.9
2023-01-13T17:24:58.410Z,73.5
2023-01-13T17:26:14.707Z,73.7
2023-01-13T17:27:31.002Z,74.2
2023-01-13T17:28:47.299Z,74.1
2023-01-13T17:30:03.587Z,74.1
2023-01-13T17:31:19.883Z,74.2
2023-01-13T17:32:36.188Z,73.8
2023-01-13T17:33:51.499Z,73.9